Time;durP1;ratioP1;P1;durP2;ratioP2;P2;SDS_P1;SDS_P2;PMS_P1;PMS_P2;Temp;Humidity;BMP_temperature;BMP_pressure;BME280_temperature;BME280_humidity;BME280_pressure;Samples;Min_cycle;Max_cycle;Signal;HPM_P1;HPM_P2
2021/01/09 00:01:02;;;;;;;16.25;9.43;;;;;;;2.43;76.58;100707.13;5012951;28;20084;-83
2021/01/09 00:03:30;;;;;;;14.68;9.35;;;;;;;2.42;76.59;100702.78;5004669;28;20081;-83
2021/01/09 00:05:56;;;;;;;15.38;9.52;;;;;;;2.44;75.54;100704.50;5021256;28;20041;-84
2021/01/09 00:08:23;;;;;;;14.77;9.27;;;;;;;2.45;75.01;100701.00;5021352;28;20050;-85
2021/01/09 00:10:49;;;;;;;15.77;9.30;;;;;;;2.44;74.49;100706.25;5006548;28;20061;-81
2021/01/09 00:13:16;;;;;;;15.45;8.77;;;;;;;2.43;73.92;100708.00;5008556;28;20885;-83
2021/01/09 00:15:43;;;;;;;14.00;9.13;;;;;;;2.44;73.32;100709.72;5026554;28;20152;-84
2021/01/09 00:18:12;;;;;;;15.68;9.05;;;;;;;2.42;74.06;100706.25;5011056;28;20153;-86
2021/01/09 00:20:38;;;;;;;14.90;8.20;;;;;;;2.41;73.77;100706.25;5013378;28;20058;-84
2021/01/09 00:23:07;;;;;;;15.25;8.98;;;;;;;2.41;73.74;100708.88;4992488;28;20085;-84
2021/01/09 00:25:35;;;;;;;13.50;8.63;;;;;;;2.38;73.24;100708.91;5017293;28;20042;-84
2021/01/09 00:28:02;;;;;;;15.73;8.95;;;;;;;2.36;73.11;100708.91;5019998;28;20504;-83
2021/01/09 00:30:29;;;;;;;14.70;9.35;;;;;;;2.34;73.31;100707.22;5016842;28;20050;-84
2021/01/09 00:32:55;;;;;;;15.48;9.02;;;;;;;2.32;73.98;100724.66;5001325;28;20137;-84
2021/01/09 00:35:21;;;;;;;14.73;9.10;;;;;;;2.34;73.57;100722.91;5023373;28;20081;-84
2021/01/09 00:37:48;;;;;;;13.95;8.27;;;;;;;2.38;72.37;100729.81;5012618;28;20042;-84
2021/01/09 00:40:18;;;;;;;15.63;9.40;;;;;;;2.35;72.38;100722.88;5034019;28;20045;-84
2021/01/09 00:42:47;;;;;;;15.25;9.35;;;;;;;2.35;72.59;100720.28;5026486;28;20050;-85
2021/01/09 00:45:14;;;;;;;16.13;9.40;;;;;;;2.34;72.73;100729.00;5026567;28;20021;-84
2021/01/09 00:47:41;;;;;;;14.98;9.02;;;;;;;2.30;73.08;100729.88;5023096;28;20038;-83
2021/01/09 00:50:07;;;;;;;15.75;9.75;;;;;;;2.32;73.45;100742.94;4999040;28;20569;-84
2021/01/09 00:53:00;;;;;;;17.67;9.98;;;;;;;2.35;72.71;100741.19;5022711;28;20020;-83
2021/01/09 00:55:28;;;;;;;13.40;8.68;;;;;;;2.36;73.36;100742.88;5023253;28;20142;-83
2021/01/09 00:57:54;;;;;;;16.55;9.43;;;;;;;2.37;73.62;100744.63;5011533;28;20064;-84
2021/01/09 01:00:21;;;;;;;15.38;9.13;;;;;;;2.36;73.31;100752.50;5022260;28;20045;-84
2021/01/09 01:02:47;;;;;;;17.48;10.05;;;;;;;2.36;73.73;100747.28;5025350;28;20060;-83
2021/01/09 01:05:14;;;;;;;16.98;9.05;;;;;;;2.35;73.57;100756.84;5001271;28;20057;-83
2021/01/09 01:07:40;;;;;;;16.13;8.93;;;;;;;2.42;73.11;100752.44;5008326;28;20048;-83
2021/01/09 01:10:08;;;;;;;16.88;9.75;;;;;;;2.42;72.36;100758.53;5029629;28;20046;-83
2021/01/09 01:12:35;;;;;;;16.52;9.68;;;;;;;2.39;73.05;100755.06;5022852;28;20038;-83
2021/01/09 01:15:04;;;;;;;15.18;9.15;;;;;;;2.28;73.29;100749.94;5034782;28;20065;-83
2021/01/09 01:17:32;;;;;;;15.00;9.13;;;;;;;2.28;73.42;100751.69;5003175;28;20046;-83
2021/01/09 01:20:01;;;;;;;15.88;9.93;;;;;;;2.28;73.18;100749.06;5016135;28;20079;-83
2021/01/09 01:22:29;;;;;;;14.68;8.70;;;;;;;2.22;72.93;100734.28;5013522;28;20053;-84
2021/01/09 01:24:56;;;;;;;15.40;9.43;;;;;;;2.32;73.49;100756.88;4996534;28;20066;-83
2021/01/09 01:27:28;;;;;;;14.45;9.00;;;;;;;2.28;72.54;100751.69;5006723;28;20057;-83
2021/01/09 01:29:56;;;;;;;14.48;9.20;;;;;;;2.32;73.28;100762.09;5012807;28;20205;-84
2021/01/09 01:32:22;;;;;;;19.60;9.50;;;;;;;2.33;73.33;100763.84;5018105;28;20054;-83
2021/01/09 01:34:49;;;;;;;16.20;9.30;;;;;;;2.34;73.59;100764.72;5029242;28;20053;-83
2021/01/09 01:37:16;;;;;;;16.55;9.77;;;;;;;2.29;73.03;100762.13;5021159;28;20041;-83
2021/01/09 01:39:43;;;;;;;14.80;9.20;;;;;;;2.30;73.58;100763.00;5012092;28;20045;-83
2021/01/09 01:42:09;;;;;;;14.55;9.05;;;;;;;2.29;73.23;100763.88;5031691;28;20065;-83
2021/01/09 01:44:39;;;;;;;16.38;9.80;;;;;;;2.30;73.35;100771.69;5015357;28;20038;-83
2021/01/09 01:47:15;;;;;;;17.70;10.13;;;;;;;2.35;73.47;100775.16;5023837;28;20344;-83
2021/01/09 01:49:48;;;;;;;;;;;;;;;2.40;72.88;100773.34;5022729;28;20041;-83
2021/01/09 01:52:19;;;;;;;16.38;9.25;;;;;;;2.39;73.59;100770.75;5019471;28;19991;-83
2021/01/09 01:54:47;;;;;;;19.92;9.98;;;;;;;2.38;73.20;100762.03;5008832;28;20054;-83
2021/01/09 01:57:14;;;;;;;15.60;9.05;;;;;;;2.42;72.72;100768.13;4995621;28;20145;-83
2021/01/09 01:59:42;;;;;;;14.18;8.80;;;;;;;2.38;72.98;100767.25;4995090;28;20039;-83
2021/01/09 02:02:11;;;;;;;14.93;9.68;;;;;;;2.37;73.44;100770.75;5017642;28;20053;-82
2021/01/09 02:04:38;;;;;;;14.75;9.20;;;;;;;2.38;73.03;100776.84;5012097;28;20065;-83
2021/01/09 02:07:16;;;;;;;15.18;8.70;;;;;;;2.36;72.52;100774.25;5010009;28;20081;-83
2021/01/09 02:09:46;;;;;;;16.50;9.60;;;;;;;2.38;73.31;100771.63;5006998;28;20056;-83
2021/01/09 02:12:45;;;;;;;14.45;8.68;;;;;;;2.37;73.04;100781.22;5008885;28;20049;-84
2021/01/09 02:15:14;;;;;;;13.73;8.85;;;;;;;2.41;72.53;100772.47;5001057;28;20072;-84
2021/01/09 02:17:42;;;;;;;15.88;8.57;;;;;;;2.41;72.16;100771.59;5005705;28;20050;-83
2021/01/09 02:20:09;;;;;;;13.98;8.55;;;;;;;2.43;72.33;100775.06;5000012;28;20827;-84
2021/01/09 02:22:43;;;;;;;14.30;8.73;;;;;;;2.45;72.43;100773.31;5003842;28;20430;-84
2021/01/09 02:25:11;;;;;;;14.30;8.80;;;;;;;2.47;71.38;100777.66;5020308;28;20186;-83
2021/01/09 02:27:39;;;;;;;13.20;8.38;;;;;;;2.46;71.16;100773.31;5024484;28;20113;-83
2021/01/09 02:30:21;;;;;;;13.63;7.85;;;;;;;2.46;70.98;100775.06;5028094;28;20073;-83
2021/01/09 02:33:01;;;;;;;13.38;8.57;;;;;;;2.49;71.04;100768.94;5029586;28;20053;-84
2021/01/09 02:35:31;;;;;;;13.88;8.98;;;;;;;2.50;70.86;100775.91;5025506;28;20046;-84
2021/01/09 02:37:58;;;;;;;15.20;9.50;;;;;;;2.49;71.12;100776.78;5012614;28;20078;-84
2021/01/09 02:40:24;;;;;;;12.38;8.48;;;;;;;2.47;71.15;100775.06;5017066;28;20046;-84
2021/01/09 02:42:51;;;;;;;14.85;8.98;;;;;;;2.45;71.33;100776.81;5039042;28;20081;-84
2021/01/09 02:45:17;;;;;;;12.55;8.25;;;;;;;2.49;71.30;100779.41;5022387;28;20053;-83
2021/01/09 02:47:44;;;;;;;11.50;7.75;;;;;;;2.45;70.33;100779.41;5010238;28;20054;-84
2021/01/09 02:50:11;;;;;;;12.77;8.13;;;;;;;2.43;70.55;100783.78;5018138;28;20045;-84
2021/01/09 02:52:39;;;;;;;13.10;8.00;;;;;;;2.41;70.75;100780.31;5002460;28;20053;-84
2021/01/09 02:55:08;;;;;;;13.23;7.95;;;;;;;2.42;70.19;100784.66;5014602;28;20049;-83
2021/01/09 02:57:35;;;;;;;12.13;7.82;;;;;;;2.40;70.13;100789.03;5035903;28;20262;-83
2021/01/09 03:00:05;;;;;;;11.60;7.38;;;;;;;2.42;70.47;100791.63;5019815;28;20136;-83
2021/01/09 03:02:32;;;;;;;14.07;8.07;;;;;;;2.44;70.75;100788.13;5030865;28;20037;-82
2021/01/09 03:05:07;;;;;;;13.82;8.27;;;;;;;2.45;70.94;100795.09;5021420;28;20053;-83
2021/01/09 03:07:34;;;;;;;12.10;8.40;;;;;;;2.47;70.92;100800.31;5012909;28;20042;-83
2021/01/09 03:10:02;;;;;;;12.80;8.00;;;;;;;2.45;70.65;100802.06;5018342;28;20073;-83
2021/01/09 03:12:28;;;;;;;13.43;8.60;;;;;;;2.43;69.56;100802.09;5040686;28;20130;-83
2021/01/09 03:14:55;;;;;;;10.30;6.93;;;;;;;2.40;68.91;100801.22;5013153;28;20042;-83
2021/01/09 03:17:24;;;;;;;12.52;7.72;;;;;;;2.42;68.57;100805.56;5027227;28;20921;-84
2021/01/09 03:19:51;;;;;;;11.32;7.22;;;;;;;2.41;69.16;100803.84;5028533;28;20056;-84
2021/01/09 03:22:18;;;;;;;10.55;7.00;;;;;;;2.36;69.08;100803.00;5021430;28;20050;-84
2021/01/09 03:24:44;;;;;;;11.73;7.13;;;;;;;2.35;69.29;100809.13;5013070;28;20057;-83
2021/01/09 03:27:11;;;;;;;10.68;6.88;;;;;;;2.34;68.93;100806.53;5026786;28;20372;-84
2021/01/09 03:29:38;;;;;;;10.00;6.95;;;;;;;2.37;68.41;100815.19;5023239;28;20049;-84
2021/01/09 03:32:05;;;;;;;10.52;6.25;;;;;;;2.35;69.10;100806.50;5003974;28;20086;-84
2021/01/09 03:34:32;;;;;;;11.75;6.78;;;;;;;2.31;69.65;100801.31;5016255;28;20069;-82
2021/01/09 03:37:00;;;;;;;12.02;7.40;;;;;;;2.28;69.35;100807.41;5023692;28;20120;-83
2021/01/09 03:39:27;;;;;;;10.20;7.15;;;;;;;2.25;69.73;100806.56;5045677;28;20033;-83
2021/01/09 03:41:53;;;;;;;10.32;6.57;;;;;;;2.23;70.04;100803.97;5033415;28;20026;-83
2021/01/09 03:44:21;;;;;;;12.60;7.57;;;;;;;2.20;69.93;100803.13;5012650;28;20115;-83
2021/01/09 03:46:48;;;;;;;11.27;7.18;;;;;;;2.15;70.33;100808.38;5031561;28;20037;-84
2021/01/09 03:49:14;;;;;;;10.93;7.03;;;;;;;2.16;70.45;100804.88;5015705;28;20073;-80
2021/01/09 03:51:41;;;;;;;13.85;8.27;;;;;;;2.14;69.71;100803.16;5006699;28;20066;-83
2021/01/09 03:54:07;;;;;;;11.38;7.47;;;;;;;2.10;70.85;100810.13;5013754;28;20068;-84
2021/01/09 03:56:33;;;;;;;14.10;7.95;;;;;;;2.12;70.75;100813.63;5002202;28;20404;-83
2021/01/09 03:59:01;;;;;;;13.15;8.57;;;;;;;2.14;70.94;100813.59;5032088;28;20045;-83
2021/01/09 04:01:28;;;;;;;13.75;8.45;;;;;;;2.09;71.56;100809.28;5013706;28;20069;-82
2021/01/09 04:03:56;;;;;;;14.10;9.43;;;;;;;2.05;71.69;100810.16;5027660;28;20038;-82
2021/01/09 04:06:22;;;;;;;15.13;9.48;;;;;;;2.05;72.02;100811.91;5014243;28;20034;-82
2021/01/09 04:08:49;;;;;;;15.77;9.48;;;;;;;2.01;72.53;100797.16;5017781;28;20089;-84
2021/01/09 04:11:15;;;;;;;15.00;9.38;;;;;;;2.08;72.50;100809.28;5017452;28;20060;-83
2021/01/09 04:13:42;;;;;;;17.40;10.98;;;;;;;2.10;72.65;100808.41;5034512;28;20033;-84
2021/01/09 04:16:08;;;;;;;15.50;9.88;;;;;;;2.09;73.36;100805.78;5019622;28;20136;-83
2021/01/09 04:18:34;;;;;;;17.30;10.18;;;;;;;2.12;73.14;100811.00;5007375;28;20050;-82
2021/01/09 04:21:01;;;;;;;15.93;9.50;;;;;;;2.13;73.75;100810.13;5019261;28;20037;-83
2021/01/09 04:23:28;;;;;;;16.45;9.75;;;;;;;2.13;73.80;100811.88;5038105;28;20080;-82
2021/01/09 04:25:54;;;;;;;15.65;9.93;;;;;;;2.09;73.53;100806.66;5032330;28;20034;-82
2021/01/09 04:28:20;;;;;;;16.10;9.75;;;;;;;2.10;74.07;100810.13;5036733;28;20034;-82
2021/01/09 04:30:46;;;;;;;15.27;9.48;;;;;;;2.10;73.76;100810.13;5031902;28;20090;-83
2021/01/09 04:33:13;;;;;;;16.52;9.80;;;;;;;2.11;74.01;100815.34;5019534;28;20060;-83
2021/01/09 04:35:40;;;;;;;14.82;9.38;;;;;;;2.10;73.88;100823.19;5024449;28;20034;-82
2021/01/09 04:38:07;;;;;;;15.68;9.82;;;;;;;2.08;73.95;100819.72;5031250;28;20034;-83
2021/01/09 04:40:35;;;;;;;15.88;9.85;;;;;;;2.07;73.50;100812.75;5028861;28;20037;-82
2021/01/09 04:43:02;;;;;;;17.10;9.63;;;;;;;2.06;74.02;100821.47;5013460;28;20109;-82
2021/01/09 04:45:29;;;;;;;17.50;10.63;;;;;;;2.06;74.40;100826.69;5012679;28;20115;-82
2021/01/09 04:47:58;;;;;;;16.05;9.70;;;;;;;2.02;74.49;100835.44;5023443;28;20042;-82
2021/01/09 04:50:26;;;;;;;15.40;9.45;;;;;;;2.05;74.26;100833.66;5025472;28;20034;-82
2021/01/09 04:52:55;;;;;;;17.10;9.90;;;;;;;2.02;74.98;100828.47;5022026;28;20064;-82
2021/01/09 04:55:22;;;;;;;17.33;10.32;;;;;;;2.08;74.85;100836.28;5031277;28;20062;-83
2021/01/09 04:57:50;;;;;;;16.75;9.65;;;;;;;2.06;74.70;100826.69;5034196;28;20040;-83
2021/01/09 05:00:17;;;;;;;16.13;10.23;;;;;;;2.11;74.72;100841.47;5013042;28;20038;-84
2021/01/09 05:02:44;;;;;;;14.48;9.50;;;;;;;2.09;74.28;100838.00;5018570;28;20076;-83
2021/01/09 05:05:11;;;;;;;19.20;10.48;;;;;;;2.11;74.80;100832.78;5017535;28;20044;-83
2021/01/09 05:07:38;;;;;;;15.48;9.43;;;;;;;2.11;74.52;100840.63;5026187;28;20029;-82
2021/01/09 05:10:05;;;;;;;15.80;9.63;;;;;;;2.11;74.45;100832.78;5042015;28;20034;-83
2021/01/09 05:12:33;;;;;;;15.10;9.57;;;;;;;2.13;74.59;100835.38;5040313;28;20070;-83
2021/01/09 05:15:03;;;;;;;16.15;9.65;;;;;;;2.16;74.41;100841.47;5030368;28;20232;-83
2021/01/09 05:17:30;;;;;;;17.88;10.25;;;;;;;2.16;74.74;100844.09;5005517;28;20050;-83
2021/01/09 05:19:57;;;;;;;16.58;10.25;;;;;;;2.16;74.16;100838.00;5005216;28;20038;-83
2021/01/09 05:22:25;;;;;;;15.23;10.05;;;;;;;2.19;74.50;100844.06;4995257;28;20104;-83
2021/01/09 05:24:53;;;;;;;17.70;10.40;;;;;;;2.24;74.01;100850.13;5020285;28;20420;-83
2021/01/09 05:27:20;;;;;;;17.08;10.43;;;;;;;2.24;74.26;100852.72;5017850;28;20038;-84
2021/01/09 05:29:52;;;;;;;16.98;10.23;;;;;;;2.19;74.50;100853.66;5012670;28;20053;-83
2021/01/09 05:32:20;;;;;;;15.70;10.00;;;;;;;2.16;74.44;100851.06;5004119;28;20053;-83
2021/01/09 05:34:49;;;;;;;18.75;10.55;;;;;;;2.17;74.25;100861.50;5012561;28;20162;-83
2021/01/09 05:37:25;;;;;;;21.30;11.48;;;;;;;2.15;75.11;100852.78;5022490;28;20053;-83
2021/01/09 05:39:54;;;;;;;17.60;11.23;;;;;;;2.15;74.79;100858.03;5014719;28;20041;-83
2021/01/09 05:42:29;;;;;;;17.67;10.80;;;;;;;2.15;75.11;100860.63;5001710;28;20052;-84
2021/01/09 05:44:58;;;;;;;18.73;11.10;;;;;;;2.14;74.81;100865.84;5018728;28;20485;-83
2021/01/09 05:47:30;;;;;;;19.65;11.52;;;;;;;2.09;74.56;100863.25;5015575;28;20477;-84
2021/01/09 05:49:59;;;;;;;20.35;11.57;;;;;;;2.10;75.04;100868.47;5018406;28;20052;-83
2021/01/09 05:52:27;;;;;;;17.10;10.60;;;;;;;2.11;75.47;100874.56;5005362;28;20155;-83
2021/01/09 05:54:58;;;;;;;18.70;11.25;;;;;;;2.08;75.58;100874.59;5012406;28;20070;-83
2021/01/09 05:57:31;;;;;;;20.50;11.73;;;;;;;2.03;75.64;100885.06;5016457;28;20069;-84
2021/01/09 06:00:04;;;;;;;21.17;11.95;;;;;;;1.99;75.79;100872.91;5000248;28;20473;-84
2021/01/09 06:02:59;;;;;;;21.30;11.98;;;;;;;2.03;75.82;100885.06;5011158;28;20065;-84
2021/01/09 06:05:45;;;;;;;19.20;11.25;;;;;;;1.95;75.48;100880.75;4992746;28;20054;-84
2021/01/09 06:08:16;;;;;;;21.27;11.75;;;;;;;1.96;76.10;100890.31;5007420;28;20186;-84
2021/01/09 06:10:47;;;;;;;22.13;12.50;;;;;;;1.98;76.48;100885.97;5031029;28;20034;-84
2021/01/09 06:13:18;;;;;;;22.50;12.55;;;;;;;1.96;76.05;100883.34;5024675;28;20045;-83
2021/01/09 06:15:48;;;;;;;23.00;13.27;;;;;;;2.01;76.08;100894.66;5022749;28;20038;-84
2021/01/09 06:18:15;;;;;;;22.48;12.25;;;;;;;1.99;76.73;100882.47;5033254;28;20056;-83
2021/01/09 06:20:42;;;;;;;20.27;12.43;;;;;;;2.00;76.58;100894.66;5027632;28;20050;-83
2021/01/09 06:23:11;;;;;;;21.00;11.80;;;;;;;2.00;76.62;100899.88;5002743;28;20043;-83
2021/01/09 06:25:40;;;;;;;19.08;12.00;;;;;;;1.98;76.35;100893.78;5031172;28;20057;-83
2021/01/09 06:28:12;;;;;;;18.52;11.40;;;;;;;1.98;75.95;100885.97;5029033;28;20033;-82
2021/01/09 06:30:43;;;;;;;20.63;12.40;;;;;;;1.95;76.23;100899.03;5029537;28;20076;-83
2021/01/09 06:33:16;;;;;;;19.55;11.77;;;;;;;1.90;76.61;100892.94;5002107;28;20397;-83
2021/01/09 06:35:44;;;;;;;19.42;11.73;;;;;;;1.90;76.49;100892.94;5003864;28;20054;-83
2021/01/09 06:38:11;;;;;;;21.30;12.18;;;;;;;1.84;76.91;100892.97;5029535;28;20114;-83
2021/01/09 06:40:38;;;;;;;19.05;11.50;;;;;;;1.82;77.12;100903.44;5008664;28;20051;-83
2021/01/09 06:43:04;;;;;;;21.05;12.02;;;;;;;1.78;77.44;100901.69;5004024;28;20050;-83
2021/01/09 06:45:35;;;;;;;21.42;12.45;;;;;;;1.76;77.62;100904.31;5024223;28;20045;-83
2021/01/09 06:48:05;;;;;;;18.95;11.57;;;;;;;1.77;77.66;100903.44;5025430;28;20033;-83
2021/01/09 06:50:33;;;;;;;18.35;10.80;;;;;;;1.80;77.70;100899.09;5023308;28;20051;-83
2021/01/09 06:53:07;;;;;;;20.60;11.65;;;;;;;1.76;77.98;100893.00;5020559;28;20153;-83
2021/01/09 06:55:36;;;;;;;20.55;12.10;;;;;;;1.81;77.63;100903.44;5022239;28;20121;-84
2021/01/09 06:58:09;;;;;;;21.50;11.90;;;;;;;1.80;77.80;100904.31;5020937;28;20140;-84
2021/01/09 07:00:36;;;;;;;20.67;11.25;;;;;;;1.71;77.64;100900.88;5025749;28;20038;-83
2021/01/09 07:03:14;;;;;;;19.50;11.40;;;;;;;1.75;77.58;100917.38;5010818;28;20050;-83
2021/01/09 07:05:44;;;;;;;20.80;12.25;;;;;;;1.69;78.13;100923.50;5032911;28;20046;-83
2021/01/09 07:08:19;;;;;;;18.10;11.07;;;;;;;1.68;77.15;100919.13;4997350;28;20053;-82
2021/01/09 07:11:09;;;;;;;20.90;12.05;;;;;;;1.69;78.10;100930.44;5013076;28;20492;-82
2021/01/09 07:13:36;;;;;;;20.13;11.88;;;;;;;1.60;77.73;100915.66;5023071;28;20048;-82
2021/01/09 07:16:10;;;;;;;20.25;11.90;;;;;;;1.64;77.48;100934.81;5012632;28;20121;-83
2021/01/09 07:18:48;;;;;;;21.63;12.05;;;;;;;1.71;77.15;100940.03;5029924;28;20038;-83
2021/01/09 07:21:19;;;;;;;19.13;11.15;;;;;;;1.68;77.36;100942.63;5026767;28;20053;-83
2021/01/09 07:23:53;;;;;;;21.73;11.95;;;;;;;1.70;77.66;100948.72;5020739;28;20191;-82
2021/01/09 07:26:20;;;;;;;19.35;11.60;;;;;;;1.69;77.64;100954.81;4999935;28;20114;-83
2021/01/09 07:28:48;;;;;;;20.95;11.15;;;;;;;1.64;77.67;100953.94;5012836;28;20077;-83
2021/01/09 07:31:14;;;;;;;21.58;11.77;;;;;;;1.59;78.04;100955.69;4992132;28;20121;-82
2021/01/09 07:33:45;;;;;;;19.50;11.85;;;;;;;1.57;78.20;100956.59;5006806;28;20049;-83
2021/01/09 07:36:17;;;;;;;19.35;11.43;;;;;;;1.56;78.39;100955.72;4989624;28;20760;-83
2021/01/09 07:38:45;;;;;;;19.63;10.70;;;;;;;1.59;78.37;100960.91;5014113;28;20046;-83
2021/01/09 07:41:31;;;;;;;19.55;10.82;;;;;;;1.65;77.45;100962.66;5023483;28;20124;-82
2021/01/09 07:44:11;;;;;;;17.90;10.20;;;;;;;1.69;77.62;100970.47;5018989;28;20060;-82
2021/01/09 07:46:48;;;;;;;17.73;10.02;;;;;;;1.74;77.65;100966.09;5027213;28;20077;-83
2021/01/09 07:49:25;;;;;;;18.88;11.02;;;;;;;1.74;77.86;100976.53;5016471;28;20054;-83
2021/01/09 07:52:00;;;;;;;18.17;10.57;;;;;;;1.69;77.59;100961.78;5009675;28;20085;-82
2021/01/09 07:54:44;;;;;;;20.95;12.00;;;;;;;1.77;77.81;100983.50;5022211;28;20129;-83
2021/01/09 07:57:19;;;;;;;17.02;10.30;;;;;;;1.76;77.56;100976.53;5020333;28;20143;-83
2021/01/09 07:59:55;;;;;;;19.75;10.88;;;;;;;1.77;78.03;100987.00;5018638;28;20054;-83
2021/01/09 08:02:25;;;;;;;19.38;11.10;;;;;;;1.75;77.82;100988.72;5028138;28;20045;-83
2021/01/09 08:05:03;;;;;;;19.00;11.05;;;;;;;1.74;77.82;100991.34;4994924;28;20062;-82
2021/01/09 08:07:32;;;;;;;21.10;11.73;;;;;;;1.64;78.11;100985.28;5000452;28;20643;-83
2021/01/09 08:09:58;;;;;;;22.85;12.13;;;;;;;1.59;78.13;100994.84;5009570;28;20444;-83
2021/01/09 08:12:26;;;;;;;18.58;11.15;;;;;;;1.53;78.74;101002.69;5013966;28;20095;-85
2021/01/09 08:14:56;;;;;;;19.42;11.07;;;;;;;1.53;79.17;101007.03;5012648;28;20065;-84
2021/01/09 08:17:23;;;;;;;20.83;11.23;;;;;;;1.51;78.61;101006.19;5018139;28;20054;-85
2021/01/09 08:19:50;;;;;;;20.60;11.75;;;;;;;1.50;78.78;101015.75;5013644;28;20052;-84
2021/01/09 08:22:16;;;;;;;18.40;11.10;;;;;;;1.50;78.82;101014.88;5034201;28;20054;-82
2021/01/09 08:24:43;;;;;;;19.80;10.98;;;;;;;1.50;79.31;101020.97;5032285;28;20113;-83
2021/01/09 08:27:18;;;;;;;18.30;11.30;;;;;;;1.50;78.81;101020.97;5027888;28;20076;-84
2021/01/09 08:29:46;;;;;;;20.90;12.13;;;;;;;1.53;79.54;101025.31;5001168;28;20051;-84
2021/01/09 08:32:17;;;;;;;19.95;11.15;;;;;;;1.50;79.23;101026.19;5003555;28;20068;-84
2021/01/09 08:34:48;;;;;;;20.42;10.93;;;;;;;1.57;79.10;101033.16;5012223;28;20509;-83
2021/01/09 08:37:15;;;;;;;20.95;11.20;;;;;;;1.57;79.37;101029.69;5019108;28;20052;-82
2021/01/09 08:39:43;;;;;;;18.58;11.05;;;;;;;1.58;79.15;101029.66;5012236;28;20046;-83
2021/01/09 08:42:14;;;;;;;20.30;11.25;;;;;;;1.58;78.48;101032.25;5019701;28;20447;-84
2021/01/09 08:44:47;;;;;;;20.55;11.52;;;;;;;1.59;78.75;101036.59;5002559;28;20064;-85
2021/01/09 08:47:16;;;;;;;18.05;10.77;;;;;;;1.60;78.13;101034.88;5019386;28;20034;-85
2021/01/09 08:49:49;;;;;;;19.55;11.07;;;;;;;1.60;77.95;101035.75;5025857;28;20083;-85
2021/01/09 08:52:22;;;;;;;20.73;11.85;;;;;;;1.64;78.03;101045.31;5028081;28;20040;-84
2021/01/09 08:54:54;;;;;;;19.90;11.25;;;;;;;1.64;78.22;101045.31;5032344;28;20072;-84
2021/01/09 08:57:21;;;;;;;21.33;10.50;;;;;;;1.68;77.80;101049.69;5025987;28;20110;-85
2021/01/09 08:59:48;;;;;;;19.88;11.82;;;;;;;1.66;77.06;101043.59;5007285;28;20050;-84
2021/01/09 09:02:20;;;;;;;20.13;11.48;;;;;;;1.63;77.55;101051.41;5017396;28;20054;-84
2021/01/09 09:04:52;;;;;;;19.35;11.23;;;;;;;1.62;77.37;101044.44;5042459;28;20098;-84
2021/01/09 09:07:21;;;;;;;19.58;11.32;;;;;;;1.72;76.77;101051.44;5024757;28;20602;-84
2021/01/09 09:09:51;;;;;;;21.27;11.38;;;;;;;1.87;75.91;101045.31;5024666;28;20052;-84
2021/01/09 09:12:23;;;;;;;19.70;11.82;;;;;;;1.93;75.80;101049.63;5012634;28;20125;-84
2021/01/09 09:15:01;;;;;;;20.63;11.25;;;;;;;1.94;76.61;101049.63;5031178;28;20053;-84
2021/01/09 09:17:28;;;;;;;20.98;11.48;;;;;;;2.07;76.50;101053.09;5007442;28;20026;-84
2021/01/09 09:20:02;;;;;;;22.15;11.90;;;;;;;2.18;75.68;101055.72;5031436;28;20033;-84
2021/01/09 09:22:37;;;;;;;19.00;11.07;;;;;;;2.20;75.31;101049.59;5028175;28;20400;-85
2021/01/09 09:25:24;;;;;;;19.15;11.23;;;;;;;2.25;75.33;101053.06;5027220;28;20128;-85
2021/01/09 09:28:01;;;;;;;22.77;12.30;;;;;;;2.33;75.05;101055.66;5014777;28;20050;-85
2021/01/09 09:30:27;;;;;;;21.23;11.70;;;;;;;2.41;74.79;101064.34;5009653;28;20060;-86
2021/01/09 09:32:54;;;;;;;21.75;12.32;;;;;;;2.44;74.32;101052.13;5025637;28;20068;-85
2021/01/09 09:35:27;;;;;;;18.90;12.18;;;;;;;2.58;74.39;101059.94;5029473;28;20471;-85
2021/01/09 09:38:01;;;;;;;18.13;10.45;;;;;;;2.67;73.17;101062.53;5012352;28;20069;-84
2021/01/09 09:40:33;;;;;;;16.75;10.10;;;;;;;2.63;73.00;101071.25;5012183;28;20077;-84
2021/01/09 09:43:20;;;;;;;15.32;9.55;;;;;;;2.65;73.63;101064.28;5030718;28;20117;-85
2021/01/09 09:46:14;;;;;;;17.35;10.10;;;;;;;2.76;73.30;101067.69;5030151;28;20061;-84
2021/01/09 09:48:44;;;;;;;13.48;8.52;;;;;;;2.85;71.84;101066.78;5030782;28;20401;-84
2021/01/09 09:51:12;;;;;;;15.05;8.65;;;;;;;2.84;71.11;101065.03;5013201;28;20137;-85
2021/01/09 09:53:56;;;;;;;14.05;8.48;;;;;;;2.79;71.27;101061.59;5019162;28;20042;-86
2021/01/09 09:56:25;;;;;;;13.57;8.00;;;;;;;2.87;71.65;101065.03;5017181;28;20046;-85
2021/01/09 09:59:03;;;;;;;13.63;8.55;;;;;;;2.97;71.39;101065.88;5008906;28;20049;-83
2021/01/09 10:01:30;;;;;;;11.65;7.50;;;;;;;3.05;71.00;101064.94;5026069;28;20030;-83
2021/01/09 10:04:00;;;;;;;11.98;7.45;;;;;;;3.14;70.69;101064.03;5009578;28;20057;-83
2021/01/09 10:06:44;;;;;;;11.82;7.55;;;;;;;3.21;70.13;101065.72;5025801;28;20088;-85
2021/01/09 10:09:20;;;;;;;14.32;8.30;;;;;;;3.26;69.72;101063.06;5018486;28;20056;-85
2021/01/09 10:11:54;;;;;;;13.83;7.27;;;;;;;3.31;68.91;101070.00;5016813;28;20049;-84
2021/01/09 10:14:23;;;;;;;13.88;7.75;;;;;;;3.27;68.26;101065.69;5003471;28;20246;-83
2021/01/09 10:16:51;;;;;;;11.80;6.72;;;;;;;3.23;68.00;101057.84;5028531;28;20049;-86
2021/01/09 10:19:20;;;;;;;12.20;6.68;;;;;;;3.34;68.24;101061.25;5015895;28;20062;-83
2021/01/09 10:21:49;;;;;;;10.82;6.90;;;;;;;3.51;67.18;101059.38;5027811;28;20069;-84
2021/01/09 10:24:16;;;;;;;9.85;6.50;;;;;;;3.73;65.32;101055.72;5015397;28;20062;-85
2021/01/09 10:26:42;;;;;;;10.75;6.60;;;;;;;3.83;64.42;101054.75;5011484;28;20074;-84
2021/01/09 10:29:14;;;;;;;12.25;7.25;;;;;;;4.02;64.25;101057.22;4988727;28;20054;-84
2021/01/09 10:31:41;;;;;;;11.05;6.88;;;;;;;4.12;64.84;101058.84;4997953;28;20061;-83
2021/01/09 10:34:08;;;;;;;14.07;7.47;;;;;;;4.04;65.03;101053.69;4990647;28;20045;-83
2021/01/09 10:36:37;;;;;;;10.50;7.20;;;;;;;3.88;65.54;101059.97;5009394;28;20531;-83
2021/01/09 10:39:05;;;;;;;8.90;5.95;;;;;;;3.73;65.31;101058.34;5006961;28;20076;-85
2021/01/09 10:41:32;;;;;;;7.63;4.25;;;;;;;3.64;62.66;101058.41;5008360;28;20237;-83
2021/01/09 10:44:18;;;;;;;5.95;4.03;;;;;;;3.43;62.15;101051.59;5008552;28;20061;-78
2021/01/09 10:46:45;;;;;;;5.80;4.18;;;;;;;3.38;62.78;101062.97;5004156;28;20136;-81
2021/01/09 10:49:11;;;;;;;7.18;4.68;;;;;;;3.35;63.04;101058.63;5007874;28;20049;-81
2021/01/09 10:51:42;;;;;;;5.60;4.25;;;;;;;3.35;62.34;101057.75;5004455;28;20763;-83
2021/01/09 10:54:15;;;;;;;9.15;4.68;;;;;;;3.34;62.78;101059.50;4994099;28;20058;-83
2021/01/09 10:56:45;;;;;;;6.00;4.20;;;;;;;3.33;61.73;101057.78;5009227;28;20436;-82
2021/01/09 10:59:12;;;;;;;5.97;3.67;;;;;;;3.25;62.43;101053.47;5010950;28;20137;-83
2021/01/09 11:01:40;;;;;;;6.85;3.90;;;;;;;3.29;62.36;101061.31;4994132;28;20049;-84
2021/01/09 11:04:07;;;;;;;5.93;3.90;;;;;;;3.30;62.59;101052.59;5006076;28;20061;-83
2021/01/09 11:06:33;;;;;;;5.57;4.10;;;;;;;3.40;62.14;101062.09;5007706;28;20062;-83
2021/01/09 11:09:00;;;;;;;7.75;5.13;;;;;;;3.50;61.80;101053.28;4995402;28;20136;-82
2021/01/09 11:11:27;;;;;;;5.53;4.13;;;;;;;3.58;61.00;101048.00;5005749;28;20092;-83
2021/01/09 11:13:53;;;;;;;4.57;3.40;;;;;;;3.53;59.24;101057.63;5001063;28;20051;-82
2021/01/09 11:16:22;;;;;;;5.18;3.67;;;;;;;3.49;59.94;101048.94;5017445;28;20092;-82
2021/01/09 11:18:49;;;;;;;6.60;3.95;;;;;;;3.58;60.55;101058.47;4993970;28;20064;-82
2021/01/09 11:21:18;;;;;;;6.32;3.88;;;;;;;3.68;60.60;101056.63;5007118;28;20054;-82
2021/01/09 11:23:46;;;;;;;7.53;3.97;;;;;;;3.70;59.78;101065.34;5000976;28;20084;-82
2021/01/09 11:26:32;;;;;;;5.40;3.88;;;;;;;3.68;59.30;101065.38;5004301;28;20052;-82
2021/01/09 11:28:59;;;;;;;6.72;3.88;;;;;;;3.56;59.36;101068.09;5018208;28;20034;-83
2021/01/09 11:31:25;;;;;;;5.05;3.70;;;;;;;3.55;59.80;101075.94;5029156;28;20034;-82
2021/01/09 11:33:52;;;;;;;5.93;4.22;;;;;;;3.52;59.52;101077.72;5001894;28;20042;-83